Back to Top

Current Local METAR Station Weather Reports...

Local METAR Reports

Local METAR Reports

 

EGNJ - Humberside, United Kingdom
Distance from station: ESE 12mi, 20km
Updated: Fri, 07-May-2021 6:50am BST
Clear
Clear
 Wind from W
Wind: W 7 mph , 11 km/h
Temperature: 4°C
Wind Chill: 1°C
Dew Point: 3°C
Humidity: 93%
Barometer: 1013 hPa
Summary: Clear
Visibility: greater than 7 miles , 10 km
2021/05/07 05:50 EGNJ 070550Z 26006KT CAVOK 04/03 Q1013
EGXV - Leconfield (aut), United Kingdom
Distance from station: NNE 16mi, 26km
Updated: Fri, 07-May-2021 6:50am BST
Clear
Clear
 Wind from W
Wind: W 5 mph , 7 km/h
Temperature: 3°C
Wind Chill: 1°C
Dew Point: 2°C
Humidity: 93%
Barometer: 1012 hPa
Clouds: Clear
Visibility: 6 miles , 10 km
2021/05/07 05:50 EGXV 070550Z AUTO 26004KT 9999 NCD 03/02 Q1012
 
EGCN - Doncaster Sheffi, United Kingdom
Distance from station: SW 20mi, 32km
Updated: Fri, 07-May-2021 6:50am BST
Clear
Clear
 Wind from W
Wind: W 5 mph , 7 km/h
Temperature: 4°C
Wind Chill: 2°C
Dew Point: 3°C
Humidity: 93%
Barometer: 1014 hPa
Summary: Clear
Visibility: greater than 7 miles , 10 km
2021/05/07 05:50 EGCN 070550Z 28004KT CAVOK 04/03 Q1014
EGXP - Scampton Raf, United Kingdom
Distance from station: S 25mi, 39km
Updated: Fri, 07-May-2021 6:50am BST
Clear
Clear
 Wind from WSW
Wind: WSW 8 mph , 13 km/h
Temperature: 2°C
Wind Chill: -1°C
Dew Point: 2°C
Humidity: 100%
Barometer: 1012 hPa
Clouds: Clear
Visibility: 6 miles , 10 km
2021/05/07 05:50 EGXP 070550Z AUTO 25007KT 9999 // NCD 02/02 Q1012
 
EGXW - Waddington Raf, United Kingdom
Distance from station: S 33mi, 53km
Updated: Fri, 07-May-2021 6:50am BST
Few Clouds
Few Clouds
 Wind from WSW
Wind: WSW 6 mph , 9 km/h
Temperature: 3°C
Wind Chill: 0°C
Dew Point: 1°C
Humidity: 87%
Barometer: 1012 hPa
Clouds: Few Clouds
Visibility: 6 miles , 10 km
Cloud details: Few Clouds 610 m
2021/05/07 05:50 EGXW 070550Z 24005KT 9999 FEW020 03/01 Q1012 NOSIG RMK BLU BLU
EGXS - Donna Nook Raf, United Kingdom
Distance from station: ESE 33mi, 54km
Updated: Fri, 07-May-2021 6:50am BST
Clear
Clear
 Wind from W
Wind: W 9 mph , 15 km/h
Temperature: 3°C
Wind Chill: -1°C
Dew Point: 2°C
Humidity: 93%
Barometer: 1012 hPa
Clouds: Clear
Visibility: 6 miles , 10 km
2021/05/07 05:50 EGXS 070550Z AUTO 26008KT 9999 // NCD 03/02 Q1012
 
EGXU - Linton-On-Ouse R, United Kingdom
Distance from station: NW 38mi, 61km
Updated: Fri, 07-May-2021 6:50am BST
Mostly Cloudy
Mostly Cloudy
 Wind from calm
Wind: Calm
Temperature: 3°C
Dew Point: 2°C
Humidity: 93%
Barometer: 1012 hPa
Clouds: Mostly Cloudy
Visibility: 6 miles , 10 km
Cloud details: Mostly Cloudy 1524 m
2021/05/07 05:50 EGXU 070550Z AUTO 00000KT 9999 BKN050/// 03/02 Q1012
EGXC - Coningsby Raf, United Kingdom
Distance from station: SSE 42mi, 68km
Updated: Fri, 07-May-2021 6:50am BST
Few Clouds
Few Clouds
 Wind from W
Wind: W 5 mph , 7 km/h
Temperature: 3°C
Wind Chill: 1°C
Dew Point: 2°C
Humidity: 93%
Barometer: 1013 hPa
Clouds: Few Clouds
Visibility: 6 miles , 10 km
Cloud details: Few Clouds 1219 m
2021/05/07 05:50 EGXC 070550Z 27004KT 9999 FEW040 03/02 Q1013 NOSIG RMK BLU BLU
 
EGYD - Cranwell Raf, United Kingdom
Distance from station: S 43mi, 69km
Updated: Fri, 07-May-2021 6:50am BST
Few Clouds
Few Clouds
 Wind from W
Wind: W 10 mph , 17 km/h
Temperature: 4°C
Wind Chill: 0°C
Dew Point: 2°C
Humidity: 87%
Barometer: 1013 hPa
Clouds: Few Clouds
Visibility: 6 miles , 10 km
Cloud details: Few Clouds 1219 m
2021/05/07 05:50 EGYD 070550Z 27009KT 9999 FEW040 04/02 Q1013 NOSIG RMK BLU BLU
EGNM - Leeds And Bradfo, United Kingdom
Distance from station: WNW 44mi, 71km
Updated: Thu, 06-May-2021 3:50pm BST
NOT Current
Nearby showers, Partly cloudy
Nearby showers, Partly cloudy
 Wind from WSW
Wind: WSW 16 mph , 26 km/h
Temperature: 6°C
Wind Chill: 2°C
Dew Point: 1°C
Humidity: 71%
Barometer: 1004 hPa
Summary: Nearby Showers
Clouds: Partly Cloudy
Visibility: 6 miles , 10 km
Cloud details: Partly Cloudy 914 m
2021/05/06 14:50 EGNM 061450Z 25014KT 9999 VCSH SCT030 06/01 Q1004
 
EGXZ - Topcliffe Raf, United Kingdom
Distance from station: NW 49mi, 79km
Updated: Fri, 07-May-2021 6:50am BST
Mostly Cloudy
Mostly Cloudy
 Wind from SSE
Wind: SSE 3 mph , 6 km/h
Temperature: 1°C
Dew Point: 1°C
Humidity: 100%
Barometer: 1012 hPa
Clouds: Mostly Cloudy
Visibility: 6 miles , 10 km
Cloud details: Mostly Cloudy 1829 m
2021/05/07 05:50 EGXZ 070550Z AUTO 15003KT 9999 BKN060/// 01/01 Q1012
EGXE - Leeming Raf, United Kingdom
Distance from station: NW 57mi, 92km
Updated: Fri, 07-May-2021 6:50am BST
Mostly Cloudy
Mostly Cloudy
 Wind from WNW
Wind: WNW 8 mph , 13 km/h
Temperature: 5°C
Wind Chill: 2°C
Dew Point: 3°C
Humidity: 87%
Barometer: 1012 hPa
Clouds: Mostly Cloudy
Visibility: 6 miles , 10 km
Cloud details: Few Clouds 975 m
Mostly Cloudy 1829 m
2021/05/07 05:50 EGXE 070550Z AUTO 29007KT 9999 FEW032/// BKN060/// 05/03 Q1012
 
EGYH - Holbeach (aut), United Kingdom
Distance from station: SSE 63mi, 101km
Updated: Thu, 06-May-2021 1:50pm BST
NOT Current
Nearby showers, Partly cloudy
Nearby showers, Partly cloudy
 Wind from NW
Wind: NW 7 mph , 11 km/h
Temperature: 8°C
Wind Chill: 6°C
Dew Point: 0°C
Humidity: 57%
Barometer: 1005 hPa
Summary: Nearby Showers
Clouds: Partly Cloudy
Visibility: 6 miles , 10 km
Cloud details: Few Clouds 610 m
Partly Cloudy 914 m
2021/05/06 12:50 EGYH 061250Z 31006KT 9999 VCSH FEW020CB SCT030 08/00 Q1005 RMK BLU
EGNX - East Midlands, United Kingdom
Distance from station: SSW 65mi, 104km
Updated: Fri, 07-May-2021 6:50am BST
Clear
Clear
 Wind from W
Wind: W 10 mph , 17 km/h
Temperature: 3°C
Wind Chill: -1°C
Dew Point: 1°C
Humidity: 87%
Barometer: 1013 hPa
Summary: Clear
Visibility: greater than 7 miles , 10 km
2021/05/07 05:50 EGNX 070550Z 27009KT CAVOK 03/01 Q1013
 
EGNV - Tees-Side, United Kingdom
Distance from station: NNW 68mi, 109km
Updated: Fri, 07-May-2021 6:50am BST
Clear
Clear
 Wind from W
Wind: W 6 mph , 9 km/h
Temperature: 5°C
Wind Chill: 3°C
Dew Point: 2°C
Humidity: 81%
Barometer: 1012 hPa
Summary: Clear
Visibility: greater than 7 miles , 10 km
2021/05/07 05:50 EGNV 070550Z 28005KT CAVOK 05/02 Q1012
EGCC - Manchester Intl, United Kingdom
Distance from station: WSW 71mi, 114km
Updated: Fri, 07-May-2021 6:50am BST
Thunderstorm
Thunderstorm
 Wind from varies
Wind: varies 3 mph , 6 km/h
Temperature: 3°C
Dew Point: 2°C
Humidity: 93%
Barometer: 1013 hPa
Clouds: Thunderstorm
Visibility: 6 miles , 10 km
Cloud details: Few Clouds 671 m
2021/05/07 05:50 EGCC 070550Z AUTO VRB03KT 9999 FEW022/// //////TCU 03/02 Q1013

Metar display script from Saratoga-Weather.org

Data updates at regular intervals.